Terminal Aerodrome Forecast
Issued by NWS

Home | Current Version | Previous Version | Text Only | Print | Product List | Glossary On
Versions: 1 2 3 4 5 6 7 8 9 10 11 12 13 14
000
FTUS43 KDLH 052300 RRA
TAFHIB
TAF
KHIB 052341Z 0600/0624 14009KT P6SM SKC
     FM061000 13006KT P6SM BKN025
     FM061300 14007KT P6SM VCSH BKN015 OVC030
     FM061800 13010KT P6SM -SHRA BKN025 OVC050=

USA.gov is the U.S. government's official web portal to all federal, state and local government web resources and services.